sensor_id;sensor_type;location;lat;lon;timestamp;P1;durP1;ratioP1;P2;durP2;ratioP2
64619;SDS011;51029;51.058;13.826;2022-10-19T00:02:24;39.87;;;24.67;;
64619;SDS011;51029;51.058;13.826;2022-10-19T00:04:50;36.00;;;24.10;;
64619;SDS011;51029;51.058;13.826;2022-10-19T00:07:15;42.70;;;25.00;;
64619;SDS011;51029;51.058;13.826;2022-10-19T00:09:44;38.70;;;24.93;;
64619;SDS011;51029;51.058;13.826;2022-10-19T00:12:09;37.63;;;24.50;;
64619;SDS011;51029;51.058;13.826;2022-10-19T00:14:36;41.03;;;23.67;;
64619;SDS011;51029;51.058;13.826;2022-10-19T00:17:02;34.17;;;23.07;;
64619;SDS011;51029;51.058;13.826;2022-10-19T00:19:28;35.60;;;24.73;;
64619;SDS011;51029;51.058;13.826;2022-10-19T00:21:53;42.57;;;24.10;;
64619;SDS011;51029;51.058;13.826;2022-10-19T00:24:19;39.23;;;24.50;;
64619;SDS011;51029;51.058;13.826;2022-10-19T00:26:45;33.27;;;23.63;;
64619;SDS011;51029;51.058;13.826;2022-10-19T00:29:11;38.50;;;26.30;;
64619;SDS011;51029;51.058;13.826;2022-10-19T00:31:38;43.33;;;26.07;;
64619;SDS011;51029;51.058;13.826;2022-10-19T00:34:04;46.67;;;28.40;;
64619;SDS011;51029;51.058;13.826;2022-10-19T00:36:31;47.33;;;26.97;;
64619;SDS011;51029;51.058;13.826;2022-10-19T00:39:03;43.00;;;27.07;;
64619;SDS011;51029;51.058;13.826;2022-10-19T00:41:30;48.87;;;27.93;;
64619;SDS011;51029;51.058;13.826;2022-10-19T00:46:31;39.57;;;26.03;;
64619;SDS011;51029;51.058;13.826;2022-10-19T00:49:06;43.47;;;26.13;;
64619;SDS011;51029;51.058;13.826;2022-10-19T00:51:35;45.67;;;26.63;;
64619;SDS011;51029;51.058;13.826;2022-10-19T00:54:03;46.07;;;27.77;;
64619;SDS011;51029;51.058;13.826;2022-10-19T00:56:32;42.17;;;27.33;;
64619;SDS011;51029;51.058;13.826;2022-10-19T00:58:58;43.47;;;26.90;;
64619;SDS011;51029;51.058;13.826;2022-10-19T01:01:23;44.70;;;27.80;;
64619;SDS011;51029;51.058;13.826;2022-10-19T01:03:51;47.83;;;28.27;;
64619;SDS011;51029;51.058;13.826;2022-10-19T01:06:16;44.70;;;26.80;;
64619;SDS011;51029;51.058;13.826;2022-10-19T01:08:43;46.23;;;27.03;;
64619;SDS011;51029;51.058;13.826;2022-10-19T01:14:07;48.27;;;27.03;;
64619;SDS011;51029;51.058;13.826;2022-10-19T01:16:58;49.00;;;28.67;;
64619;SDS011;51029;51.058;13.826;2022-10-19T01:30:41;39.73;;;22.97;;
64619;SDS011;51029;51.058;13.826;2022-10-19T01:33:26;34.97;;;22.17;;
64619;SDS011;51029;51.058;13.826;2022-10-19T01:36:06;38.30;;;22.27;;
64619;SDS011;51029;51.058;13.826;2022-10-19T01:38:47;45.93;;;22.37;;
64619;SDS011;51029;51.058;13.826;2022-10-19T01:41:21;36.77;;;21.70;;
64619;SDS011;51029;51.058;13.826;2022-10-19T01:47:25;43.87;;;21.60;;
64619;SDS011;51029;51.058;13.826;2022-10-19T01:49:58;35.90;;;21.33;;
64619;SDS011;51029;51.058;13.826;2022-10-19T01:52:40;34.70;;;20.40;;
64619;SDS011;51029;51.058;13.826;2022-10-19T01:55:07;31.03;;;20.90;;
64619;SDS011;51029;51.058;13.826;2022-10-19T01:57:36;34.37;;;20.47;;
64619;SDS011;51029;51.058;13.826;2022-10-19T02:00:05;39.90;;;22.27;;
64619;SDS011;51029;51.058;13.826;2022-10-19T02:02:35;36.83;;;21.67;;
64619;SDS011;51029;51.058;13.826;2022-10-19T02:05:04;37.77;;;22.43;;
64619;SDS011;51029;51.058;13.826;2022-10-19T02:07:31;34.20;;;21.53;;
64619;SDS011;51029;51.058;13.826;2022-10-19T02:09:57;33.23;;;21.17;;
64619;SDS011;51029;51.058;13.826;2022-10-19T02:12:23;36.83;;;20.20;;
64619;SDS011;51029;51.058;13.826;2022-10-19T02:14:52;32.63;;;18.77;;
64619;SDS011;51029;51.058;13.826;2022-10-19T02:17:29;29.73;;;18.67;;
64619;SDS011;51029;51.058;13.826;2022-10-19T02:19:59;28.73;;;18.87;;
64619;SDS011;51029;51.058;13.826;2022-10-19T02:22:25;30.27;;;17.47;;
64619;SDS011;51029;51.058;13.826;2022-10-19T02:24:51;25.90;;;16.23;;
64619;SDS011;51029;51.058;13.826;2022-10-19T02:27:17;25.77;;;15.30;;
64619;SDS011;51029;51.058;13.826;2022-10-19T02:29:43;24.87;;;14.97;;
64619;SDS011;51029;51.058;13.826;2022-10-19T02:32:09;23.63;;;15.57;;
64619;SDS011;51029;51.058;13.826;2022-10-19T02:34:35;24.70;;;15.93;;
64619;SDS011;51029;51.058;13.826;2022-10-19T02:37:03;24.87;;;15.97;;
64619;SDS011;51029;51.058;13.826;2022-10-19T02:39:29;30.10;;;16.70;;
64619;SDS011;51029;51.058;13.826;2022-10-19T02:41:57;25.07;;;16.27;;
64619;SDS011;51029;51.058;13.826;2022-10-19T02:44:25;24.17;;;15.53;;
64619;SDS011;51029;51.058;13.826;2022-10-19T02:47:04;23.03;;;14.17;;
64619;SDS011;51029;51.058;13.826;2022-10-19T02:49:34;28.63;;;15.97;;
64619;SDS011;51029;51.058;13.826;2022-10-19T02:52:06;23.27;;;14.63;;
64619;SDS011;51029;51.058;13.826;2022-10-19T02:54:33;23.03;;;14.17;;
64619;SDS011;51029;51.058;13.826;2022-10-19T02:56:59;23.73;;;15.10;;
64619;SDS011;51029;51.058;13.826;2022-10-19T02:59:24;27.77;;;14.37;;
64619;SDS011;51029;51.058;13.826;2022-10-19T03:01:50;19.87;;;14.03;;
64619;SDS011;51029;51.058;13.826;2022-10-19T03:04:16;22.83;;;14.83;;
64619;SDS011;51029;51.058;13.826;2022-10-19T03:06:42;31.10;;;14.73;;
64619;SDS011;51029;51.058;13.826;2022-10-19T03:09:07;25.03;;;15.10;;
64619;SDS011;51029;51.058;13.826;2022-10-19T03:11:34;25.20;;;14.30;;
64619;SDS011;51029;51.058;13.826;2022-10-19T03:13:59;35.50;;;13.67;;
64619;SDS011;51029;51.058;13.826;2022-10-19T03:16:25;22.80;;;12.80;;
64619;SDS011;51029;51.058;13.826;2022-10-19T03:18:50;24.93;;;13.40;;
64619;SDS011;51029;51.058;13.826;2022-10-19T03:21:16;23.73;;;13.93;;
64619;SDS011;51029;51.058;13.826;2022-10-19T03:23:43;20.23;;;13.57;;
64619;SDS011;51029;51.058;13.826;2022-10-19T03:26:11;21.40;;;13.60;;
64619;SDS011;51029;51.058;13.826;2022-10-19T03:28:38;22.17;;;13.67;;
64619;SDS011;51029;51.058;13.826;2022-10-19T03:31:04;23.63;;;14.10;;
64619;SDS011;51029;51.058;13.826;2022-10-19T03:33:29;23.30;;;13.60;;
64619;SDS011;51029;51.058;13.826;2022-10-19T03:38:54;24.37;;;13.53;;
64619;SDS011;51029;51.058;13.826;2022-10-19T03:41:21;21.73;;;12.80;;
64619;SDS011;51029;51.058;13.826;2022-10-19T03:43:48;16.27;;;12.73;;
64619;SDS011;51029;51.058;13.826;2022-10-19T03:46:14;21.43;;;12.77;;
64619;SDS011;51029;51.058;13.826;2022-10-19T03:48:40;18.50;;;12.43;;
64619;SDS011;51029;51.058;13.826;2022-10-19T03:51:07;16.23;;;12.77;;
64619;SDS011;51029;51.058;13.826;2022-10-19T03:53:35;21.70;;;13.10;;
64619;SDS011;51029;51.058;13.826;2022-10-19T03:58:28;20.53;;;11.67;;
64619;SDS011;51029;51.058;13.826;2022-10-19T04:00:55;18.97;;;12.57;;
64619;SDS011;51029;51.058;13.826;2022-10-19T04:03:20;20.63;;;12.70;;
64619;SDS011;51029;51.058;13.826;2022-10-19T04:05:46;21.13;;;11.77;;
64619;SDS011;51029;51.058;13.826;2022-10-19T04:08:11;22.27;;;12.80;;
64619;SDS011;51029;51.058;13.826;2022-10-19T04:10:37;20.77;;;12.17;;
64619;SDS011;51029;51.058;13.826;2022-10-19T04:13:02;16.33;;;12.00;;
64619;SDS011;51029;51.058;13.826;2022-10-19T04:15:28;20.93;;;13.33;;
64619;SDS011;51029;51.058;13.826;2022-10-19T04:17:53;22.97;;;13.17;;
64619;SDS011;51029;51.058;13.826;2022-10-19T04:20:19;19.73;;;12.57;;
64619;SDS011;51029;51.058;13.826;2022-10-19T04:22:45;19.30;;;12.53;;
64619;SDS011;51029;51.058;13.826;2022-10-19T04:25:10;24.40;;;12.67;;
64619;SDS011;51029;51.058;13.826;2022-10-19T04:27:36;24.03;;;12.97;;
64619;SDS011;51029;51.058;13.826;2022-10-19T04:30:02;21.63;;;12.87;;
64619;SDS011;51029;51.058;13.826;2022-10-19T04:32:28;22.10;;;13.43;;
64619;SDS011;51029;51.058;13.826;2022-10-19T04:34:53;25.37;;;13.47;;
64619;SDS011;51029;51.058;13.826;2022-10-19T04:37:19;28.40;;;14.07;;
64619;SDS011;51029;51.058;13.826;2022-10-19T04:39:44;23.23;;;14.67;;
64619;SDS011;51029;51.058;13.826;2022-10-19T04:42:10;21.93;;;13.40;;
64619;SDS011;51029;51.058;13.826;2022-10-19T04:44:36;22.07;;;13.90;;
64619;SDS011;51029;51.058;13.826;2022-10-19T04:47:01;20.33;;;14.23;;
64619;SDS011;51029;51.058;13.826;2022-10-19T04:49:27;20.93;;;14.53;;
64619;SDS011;51029;51.058;13.826;2022-10-19T04:51:52;19.83;;;13.93;;
64619;SDS011;51029;51.058;13.826;2022-10-19T04:54:18;21.57;;;14.10;;
64619;SDS011;51029;51.058;13.826;2022-10-19T04:56:43;23.90;;;14.30;;
64619;SDS011;51029;51.058;13.826;2022-10-19T04:59:09;21.97;;;14.00;;
64619;SDS011;51029;51.058;13.826;2022-10-19T05:01:34;20.87;;;14.50;;
64619;SDS011;51029;51.058;13.826;2022-10-19T05:04:01;28.90;;;14.63;;
64619;SDS011;51029;51.058;13.826;2022-10-19T05:06:27;22.83;;;14.27;;
64619;SDS011;51029;51.058;13.826;2022-10-19T05:08:54;22.53;;;14.20;;
64619;SDS011;51029;51.058;13.826;2022-10-19T05:11:20;23.27;;;15.80;;
64619;SDS011;51029;51.058;13.826;2022-10-19T05:13:46;21.90;;;14.97;;
64619;SDS011;51029;51.058;13.826;2022-10-19T05:16:13;22.03;;;14.97;;
64619;SDS011;51029;51.058;13.826;2022-10-19T05:18:47;21.77;;;14.33;;
64619;SDS011;51029;51.058;13.826;2022-10-19T05:21:14;27.43;;;14.90;;
64619;SDS011;51029;51.058;13.826;2022-10-19T05:23:40;23.33;;;15.37;;
64619;SDS011;51029;51.058;13.826;2022-10-19T05:26:10;25.43;;;14.37;;
64619;SDS011;51029;51.058;13.826;2022-10-19T05:28:41;24.10;;;14.23;;
64619;SDS011;51029;51.058;13.826;2022-10-19T05:33:36;31.37;;;14.93;;
64619;SDS011;51029;51.058;13.826;2022-10-19T05:39:02;23.67;;;14.20;;
64619;SDS011;51029;51.058;13.826;2022-10-19T05:41:30;24.77;;;14.67;;
64619;SDS011;51029;51.058;13.826;2022-10-19T05:43:57;24.30;;;14.83;;
64619;SDS011;51029;51.058;13.826;2022-10-19T05:46:24;24.97;;;14.80;;
64619;SDS011;51029;51.058;13.826;2022-10-19T05:48:51;26.57;;;14.73;;
64619;SDS011;51029;51.058;13.826;2022-10-19T05:51:18;24.10;;;15.03;;
64619;SDS011;51029;51.058;13.826;2022-10-19T05:53:45;30.00;;;15.73;;
64619;SDS011;51029;51.058;13.826;2022-10-19T05:56:17;27.23;;;15.47;;
64619;SDS011;51029;51.058;13.826;2022-10-19T05:58:45;22.90;;;14.20;;
64619;SDS011;51029;51.058;13.826;2022-10-19T06:01:11;23.00;;;14.73;;
64619;SDS011;51029;51.058;13.826;2022-10-19T06:03:38;23.20;;;14.73;;
64619;SDS011;51029;51.058;13.826;2022-10-19T06:06:04;19.43;;;13.97;;
64619;SDS011;51029;51.058;13.826;2022-10-19T06:08:31;17.80;;;14.53;;
64619;SDS011;51029;51.058;13.826;2022-10-19T06:11:05;26.33;;;14.20;;
64619;SDS011;51029;51.058;13.826;2022-10-19T06:13:42;22.13;;;14.00;;
64619;SDS011;51029;51.058;13.826;2022-10-19T06:16:10;32.43;;;15.00;;
64619;SDS011;51029;51.058;13.826;2022-10-19T06:18:37;28.53;;;14.17;;
64619;SDS011;51029;51.058;13.826;2022-10-19T06:21:04;21.63;;;13.40;;
64619;SDS011;51029;51.058;13.826;2022-10-19T06:23:40;21.23;;;13.13;;
64619;SDS011;51029;51.058;13.826;2022-10-19T06:26:07;21.73;;;12.00;;
64619;SDS011;51029;51.058;13.826;2022-10-19T06:28:34;24.73;;;12.83;;
64619;SDS011;51029;51.058;13.826;2022-10-19T06:31:01;25.23;;;13.43;;
64619;SDS011;51029;51.058;13.826;2022-10-19T06:33:27;24.07;;;13.67;;
64619;SDS011;51029;51.058;13.826;2022-10-19T06:35:54;19.93;;;13.77;;
64619;SDS011;51029;51.058;13.826;2022-10-19T06:38:19;25.17;;;13.90;;
64619;SDS011;51029;51.058;13.826;2022-10-19T06:40:45;28.50;;;13.73;;
64619;SDS011;51029;51.058;13.826;2022-10-19T06:43:13;25.80;;;13.10;;
64619;SDS011;51029;51.058;13.826;2022-10-19T06:45:39;16.10;;;12.03;;
64619;SDS011;51029;51.058;13.826;2022-10-19T06:48:05;17.33;;;12.13;;
64619;SDS011;51029;51.058;13.826;2022-10-19T06:50:31;19.63;;;12.40;;
64619;SDS011;51029;51.058;13.826;2022-10-19T06:53:00;19.47;;;11.70;;
64619;SDS011;51029;51.058;13.826;2022-10-19T06:55:25;21.13;;;11.70;;
64619;SDS011;51029;51.058;13.826;2022-10-19T06:57:51;21.23;;;12.13;;
64619;SDS011;51029;51.058;13.826;2022-10-19T07:00:16;20.03;;;11.17;;
64619;SDS011;51029;51.058;13.826;2022-10-19T07:02:42;17.63;;;11.00;;
64619;SDS011;51029;51.058;13.826;2022-10-19T07:05:08;15.80;;;9.77;;
64619;SDS011;51029;51.058;13.826;2022-10-19T07:07:34;18.23;;;10.27;;
64619;SDS011;51029;51.058;13.826;2022-10-19T07:10:00;19.60;;;10.50;;
64619;SDS011;51029;51.058;13.826;2022-10-19T07:12:26;18.77;;;11.40;;
64619;SDS011;51029;51.058;13.826;2022-10-19T07:14:51;18.17;;;10.03;;
64619;SDS011;51029;51.058;13.826;2022-10-19T07:17:19;16.70;;;9.77;;
64619;SDS011;51029;51.058;13.826;2022-10-19T07:19:45;16.37;;;9.53;;
64619;SDS011;51029;51.058;13.826;2022-10-19T07:22:10;17.30;;;9.40;;
64619;SDS011;51029;51.058;13.826;2022-10-19T07:24:36;15.97;;;9.53;;
64619;SDS011;51029;51.058;13.826;2022-10-19T07:27:02;14.70;;;9.23;;
64619;SDS011;51029;51.058;13.826;2022-10-19T07:29:28;16.50;;;9.30;;
64619;SDS011;51029;51.058;13.826;2022-10-19T07:31:53;15.87;;;8.63;;
64619;SDS011;51029;51.058;13.826;2022-10-19T07:34:19;14.77;;;8.70;;
64619;SDS011;51029;51.058;13.826;2022-10-19T07:36:45;14.80;;;8.63;;
64619;SDS011;51029;51.058;13.826;2022-10-19T07:39:12;16.33;;;9.40;;
64619;SDS011;51029;51.058;13.826;2022-10-19T07:41:41;16.93;;;8.77;;
64619;SDS011;51029;51.058;13.826;2022-10-19T07:44:07;15.17;;;8.70;;
64619;SDS011;51029;51.058;13.826;2022-10-19T07:46:32;13.87;;;7.70;;
64619;SDS011;51029;51.058;13.826;2022-10-19T07:49:00;15.97;;;7.80;;
64619;SDS011;51029;51.058;13.826;2022-10-19T07:51:27;14.30;;;5.90;;
64619;SDS011;51029;51.058;13.826;2022-10-19T07:53:53;10.57;;;5.40;;
64619;SDS011;51029;51.058;13.826;2022-10-19T07:56:20;10.07;;;5.33;;
64619;SDS011;51029;51.058;13.826;2022-10-19T07:58:48;13.67;;;6.23;;
64619;SDS011;51029;51.058;13.826;2022-10-19T08:01:15;10.97;;;5.50;;
64619;SDS011;51029;51.058;13.826;2022-10-19T08:03:42;11.23;;;5.43;;
64619;SDS011;51029;51.058;13.826;2022-10-19T08:06:10;15.33;;;6.07;;
64619;SDS011;51029;51.058;13.826;2022-10-19T08:08:37;34.50;;;17.67;;
64619;SDS011;51029;51.058;13.826;2022-10-19T08:11:11;11.37;;;6.37;;
64619;SDS011;51029;51.058;13.826;2022-10-19T08:13:45;20.07;;;18.00;;
64619;SDS011;51029;51.058;13.826;2022-10-19T08:16:30;13.27;;;5.63;;
64619;SDS011;51029;51.058;13.826;2022-10-19T08:19:02;7.83;;;4.90;;
64619;SDS011;51029;51.058;13.826;2022-10-19T08:21:29;9.97;;;6.03;;
64619;SDS011;51029;51.058;13.826;2022-10-19T08:23:56;10.60;;;6.80;;
64619;SDS011;51029;51.058;13.826;2022-10-19T08:26:22;8.40;;;5.33;;
64619;SDS011;51029;51.058;13.826;2022-10-19T08:28:48;8.33;;;5.53;;
64619;SDS011;51029;51.058;13.826;2022-10-19T08:31:18;10.17;;;5.40;;
64619;SDS011;51029;51.058;13.826;2022-10-19T08:33:45;10.93;;;5.50;;
64619;SDS011;51029;51.058;13.826;2022-10-19T08:36:12;12.07;;;5.17;;
64619;SDS011;51029;51.058;13.826;2022-10-19T08:38:38;13.40;;;5.10;;
64619;SDS011;51029;51.058;13.826;2022-10-19T08:41:20;12.30;;;4.57;;
64619;SDS011;51029;51.058;13.826;2022-10-19T08:49:42;8.10;;;4.40;;
64619;SDS011;51029;51.058;13.826;2022-10-19T08:54:56;8.50;;;4.03;;
64619;SDS011;51029;51.058;13.826;2022-10-19T09:00:19;13.00;;;4.97;;
64619;SDS011;51029;51.058;13.826;2022-10-19T09:08:50;8.57;;;3.30;;
64619;SDS011;51029;51.058;13.826;2022-10-19T09:11:24;10.37;;;4.50;;
64619;SDS011;51029;51.058;13.826;2022-10-19T09:13:59;9.57;;;3.63;;
64619;SDS011;51029;51.058;13.826;2022-10-19T09:16:27;8.57;;;3.23;;
64619;SDS011;51029;51.058;13.826;2022-10-19T09:18:52;5.13;;;3.20;;
64619;SDS011;51029;51.058;13.826;2022-10-19T09:21:19;6.43;;;2.80;;
64619;SDS011;51029;51.058;13.826;2022-10-19T09:26:16;7.60;;;2.90;;
64619;SDS011;51029;51.058;13.826;2022-10-19T09:31:31;7.13;;;2.60;;
64619;SDS011;51029;51.058;13.826;2022-10-19T09:34:02;6.40;;;2.70;;
64619;SDS011;51029;51.058;13.826;2022-10-19T09:36:43;11.93;;;5.50;;
64619;SDS011;51029;51.058;13.826;2022-10-19T09:39:29;6.27;;;2.60;;
64619;SDS011;51029;51.058;13.826;2022-10-19T09:44:44;3.73;;;2.27;;
64619;SDS011;51029;51.058;13.826;2022-10-19T09:47:27;7.50;;;2.60;;
64619;SDS011;51029;51.058;13.826;2022-10-19T09:52:50;7.57;;;2.57;;
64619;SDS011;51029;51.058;13.826;2022-10-19T09:55:34;3.10;;;1.77;;
64619;SDS011;51029;51.058;13.826;2022-10-19T09:58:08;4.17;;;2.00;;
64619;SDS011;51029;51.058;13.826;2022-10-19T10:00:46;2.87;;;1.40;;
64619;SDS011;51029;51.058;13.826;2022-10-19T10:05:48;5.67;;;1.63;;
64619;SDS011;51029;51.058;13.826;2022-10-19T10:08:16;5.03;;;1.80;;
64619;SDS011;51029;51.058;13.826;2022-10-19T10:10:51;6.77;;;2.10;;
64619;SDS011;51029;51.058;13.826;2022-10-19T10:13:22;5.37;;;2.13;;
64619;SDS011;51029;51.058;13.826;2022-10-19T10:15:50;5.57;;;2.10;;
64619;SDS011;51029;51.058;13.826;2022-10-19T10:18:24;6.20;;;2.07;;
64619;SDS011;51029;51.058;13.826;2022-10-19T10:21:01;4.00;;;1.97;;
64619;SDS011;51029;51.058;13.826;2022-10-19T10:23:34;4.70;;;2.27;;
64619;SDS011;51029;51.058;13.826;2022-10-19T10:26:02;5.27;;;2.63;;
64619;SDS011;51029;51.058;13.826;2022-10-19T10:28:29;7.33;;;2.03;;
64619;SDS011;51029;51.058;13.826;2022-10-19T10:30:59;5.43;;;1.90;;
64619;SDS011;51029;51.058;13.826;2022-10-19T10:33:30;5.57;;;1.80;;
64619;SDS011;51029;51.058;13.826;2022-10-19T10:36:03;5.00;;;1.73;;
64619;SDS011;51029;51.058;13.826;2022-10-19T10:38:37;4.27;;;1.90;;
64619;SDS011;51029;51.058;13.826;2022-10-19T10:41:16;3.83;;;2.40;;
64619;SDS011;51029;51.058;13.826;2022-10-19T10:43:52;3.00;;;1.90;;
64619;SDS011;51029;51.058;13.826;2022-10-19T10:46:25;3.57;;;1.70;;
64619;SDS011;51029;51.058;13.826;2022-10-19T10:48:57;5.50;;;1.80;;
64619;SDS011;51029;51.058;13.826;2022-10-19T10:51:37;5.53;;;1.80;;
64619;SDS011;51029;51.058;13.826;2022-10-19T10:54:28;4.40;;;1.53;;
64619;SDS011;51029;51.058;13.826;2022-10-19T10:57:01;5.27;;;2.60;;
64619;SDS011;51029;51.058;13.826;2022-10-19T10:59:49;5.77;;;1.80;;
64619;SDS011;51029;51.058;13.826;2022-10-19T11:03:30;2.80;;;1.63;;
64619;SDS011;51029;51.058;13.826;2022-10-19T11:05:32;2.97;;;1.50;;
64619;SDS011;51029;51.058;13.826;2022-10-19T11:10:45;3.47;;;1.50;;
64619;SDS011;51029;51.058;13.826;2022-10-19T11:13:22;2.23;;;1.20;;
64619;SDS011;51029;51.058;13.826;2022-10-19T11:16:14;2.50;;;1.30;;
64619;SDS011;51029;51.058;13.826;2022-10-19T11:18:42;5.57;;;1.30;;
64619;SDS011;51029;51.058;13.826;2022-10-19T11:21:10;8.67;;;1.43;;
64619;SDS011;51029;51.058;13.826;2022-10-19T11:31:46;4.10;;;1.80;;
64619;SDS011;51029;51.058;13.826;2022-10-19T11:37:15;9.83;;;3.83;;
64619;SDS011;51029;51.058;13.826;2022-10-19T11:56:41;3.50;;;1.20;;
64619;SDS011;51029;51.058;13.826;2022-10-19T12:01:55;4.03;;;1.30;;
64619;SDS011;51029;51.058;13.826;2022-10-19T12:04:56;2.87;;;0.93;;
64619;SDS011;51029;51.058;13.826;2022-10-19T12:07:46;2.77;;;1.00;;
64619;SDS011;51029;51.058;13.826;2022-10-19T12:10:20;4.07;;;2.00;;
64619;SDS011;51029;51.058;13.826;2022-10-19T12:13:11;3.17;;;2.47;;
64619;SDS011;51029;51.058;13.826;2022-10-19T12:15:46;3.50;;;2.00;;
64619;SDS011;51029;51.058;13.826;2022-10-19T12:21:10;2.63;;;1.10;;
64619;SDS011;51029;51.058;13.826;2022-10-19T12:23:46;3.13;;;1.20;;
64619;SDS011;51029;51.058;13.826;2022-10-19T12:26:14;4.77;;;1.60;;
64619;SDS011;51029;51.058;13.826;2022-10-19T12:28:46;2.00;;;1.20;;
64619;SDS011;51029;51.058;13.826;2022-10-19T12:31:20;4.57;;;1.83;;
64619;SDS011;51029;51.058;13.826;2022-10-19T12:42:30;3.17;;;1.00;;
64619;SDS011;51029;51.058;13.826;2022-10-19T12:45:30;3.57;;;1.13;;
64619;SDS011;51029;51.058;13.826;2022-10-19T12:53:22;2.30;;;1.10;;
64619;SDS011;51029;51.058;13.826;2022-10-19T12:55:57;3.80;;;1.30;;
64619;SDS011;51029;51.058;13.826;2022-10-19T12:58:25;2.27;;;1.07;;
64619;SDS011;51029;51.058;13.826;2022-10-19T13:00:56;4.30;;;1.27;;
64619;SDS011;51029;51.058;13.826;2022-10-19T13:03:24;3.37;;;1.20;;
64619;SDS011;51029;51.058;13.826;2022-10-19T13:05:59;3.83;;;1.00;;
64619;SDS011;51029;51.058;13.826;2022-10-19T13:08:30;2.07;;;1.30;;
64619;SDS011;51029;51.058;13.826;2022-10-19T13:11:06;2.53;;;1.30;;
64619;SDS011;51029;51.058;13.826;2022-10-19T13:13:55;2.67;;;1.10;;
64619;SDS011;51029;51.058;13.826;2022-10-19T13:16:57;1.80;;;1.10;;
64619;SDS011;51029;51.058;13.826;2022-10-19T13:19:27;1.73;;;0.90;;
64619;SDS011;51029;51.058;13.826;2022-10-19T13:22:00;5.23;;;1.10;;
64619;SDS011;51029;51.058;13.826;2022-10-19T13:24:42;2.07;;;1.20;;
64619;SDS011;51029;51.058;13.826;2022-10-19T13:27:33;3.10;;;1.40;;
64619;SDS011;51029;51.058;13.826;2022-10-19T13:30:00;2.90;;;1.10;;
64619;SDS011;51029;51.058;13.826;2022-10-19T13:37:43;2.43;;;0.97;;
64619;SDS011;51029;51.058;13.826;2022-10-19T13:40:18;2.70;;;1.00;;
64619;SDS011;51029;51.058;13.826;2022-10-19T13:42:44;2.47;;;1.05;;
64619;SDS011;51029;51.058;13.826;2022-10-19T13:45:22;2.47;;;1.00;;
64619;SDS011;51029;51.058;13.826;2022-10-19T13:47:50;3.97;;;1.20;;
64619;SDS011;51029;51.058;13.826;2022-10-19T13:50:33;4.07;;;1.40;;
64619;SDS011;51029;51.058;13.826;2022-10-19T14:00:59;5.07;;;2.60;;
64619;SDS011;51029;51.058;13.826;2022-10-19T14:11:34;2.43;;;1.50;;
64619;SDS011;51029;51.058;13.826;2022-10-19T14:16:43;2.63;;;1.53;;
64619;SDS011;51029;51.058;13.826;2022-10-19T14:19:12;2.57;;;1.33;;
64619;SDS011;51029;51.058;13.826;2022-10-19T14:21:43;3.63;;;1.50;;
64619;SDS011;51029;51.058;13.826;2022-10-19T14:24:29;3.00;;;1.10;;
64619;SDS011;51029;51.058;13.826;2022-10-19T14:26:58;1.97;;;1.10;;
64619;SDS011;51029;51.058;13.826;2022-10-19T14:29:25;3.70;;;1.33;;
64619;SDS011;51029;51.058;13.826;2022-10-19T14:31:50;3.67;;;1.40;;
64619;SDS011;51029;51.058;13.826;2022-10-19T14:34:17;2.90;;;1.40;;
64619;SDS011;51029;51.058;13.826;2022-10-19T14:36:44;4.00;;;1.60;;
64619;SDS011;51029;51.058;13.826;2022-10-19T14:39:31;5.97;;;1.30;;
64619;SDS011;51029;51.058;13.826;2022-10-19T14:42:04;4.00;;;1.30;;
64619;SDS011;51029;51.058;13.826;2022-10-19T14:47:06;7.07;;;4.57;;
64619;SDS011;51029;51.058;13.826;2022-10-19T14:49:57;5.43;;;3.13;;
64619;SDS011;51029;51.058;13.826;2022-10-19T14:52:30;3.50;;;3.17;;
64619;SDS011;51029;51.058;13.826;2022-10-19T14:55:03;2.90;;;1.87;;
64619;SDS011;51029;51.058;13.826;2022-10-19T14:57:38;1.80;;;1.40;;
64619;SDS011;51029;51.058;13.826;2022-10-19T15:00:10;3.90;;;1.60;;
64619;SDS011;51029;51.058;13.826;2022-10-19T15:02:41;4.47;;;1.40;;
64619;SDS011;51029;51.058;13.826;2022-10-19T15:05:16;4.07;;;2.70;;
64619;SDS011;51029;51.058;13.826;2022-10-19T15:07:47;7.90;;;2.20;;
64619;SDS011;51029;51.058;13.826;2022-10-19T15:12:48;5.80;;;2.00;;
64619;SDS011;51029;51.058;13.826;2022-10-19T15:15:24;6.17;;;1.97;;
64619;SDS011;51029;51.058;13.826;2022-10-19T15:18:13;6.43;;;1.80;;
64619;SDS011;51029;51.058;13.826;2022-10-19T15:20:40;4.83;;;1.90;;
64619;SDS011;51029;51.058;13.826;2022-10-19T15:25:59;6.97;;;1.80;;
64619;SDS011;51029;51.058;13.826;2022-10-19T15:31:00;4.60;;;2.63;;
64619;SDS011;51029;51.058;13.826;2022-10-19T15:33:43;4.70;;;1.97;;
64619;SDS011;51029;51.058;13.826;2022-10-19T15:36:15;4.60;;;2.00;;
64619;SDS011;51029;51.058;13.826;2022-10-19T15:38:42;6.90;;;2.30;;
64619;SDS011;51029;51.058;13.826;2022-10-19T15:41:16;4.93;;;2.80;;
64619;SDS011;51029;51.058;13.826;2022-10-19T15:43:51;6.30;;;3.60;;
64619;SDS011;51029;51.058;13.826;2022-10-19T15:48:44;5.60;;;2.80;;
64619;SDS011;51029;51.058;13.826;2022-10-19T15:54:00;6.60;;;2.80;;
64619;SDS011;51029;51.058;13.826;2022-10-19T15:56:28;7.60;;;3.77;;
64619;SDS011;51029;51.058;13.826;2022-10-19T15:58:57;5.03;;;2.63;;
64619;SDS011;51029;51.058;13.826;2022-10-19T16:01:27;6.47;;;2.50;;
64619;SDS011;51029;51.058;13.826;2022-10-19T16:03:55;5.80;;;2.20;;
64619;SDS011;51029;51.058;13.826;2022-10-19T16:06:22;6.80;;;2.33;;
64619;SDS011;51029;51.058;13.826;2022-10-19T16:08:50;4.80;;;2.20;;
64619;SDS011;51029;51.058;13.826;2022-10-19T16:11:18;4.57;;;2.73;;
64619;SDS011;51029;51.058;13.826;2022-10-19T16:13:45;5.40;;;2.73;;
64619;SDS011;51029;51.058;13.826;2022-10-19T16:16:12;6.13;;;2.47;;
64619;SDS011;51029;51.058;13.826;2022-10-19T16:18:52;12.77;;;2.77;;
64619;SDS011;51029;51.058;13.826;2022-10-19T16:21:19;6.73;;;2.20;;
64619;SDS011;51029;51.058;13.826;2022-10-19T16:23:45;5.30;;;2.20;;
64619;SDS011;51029;51.058;13.826;2022-10-19T16:26:12;4.97;;;2.00;;
64619;SDS011;51029;51.058;13.826;2022-10-19T16:28:39;4.50;;;1.90;;
64619;SDS011;51029;51.058;13.826;2022-10-19T16:31:04;2.83;;;1.50;;
64619;SDS011;51029;51.058;13.826;2022-10-19T16:33:30;6.97;;;1.90;;
64619;SDS011;51029;51.058;13.826;2022-10-19T16:35:57;4.67;;;2.30;;
64619;SDS011;51029;51.058;13.826;2022-10-19T16:38:23;4.63;;;1.80;;
64619;SDS011;51029;51.058;13.826;2022-10-19T16:40:48;4.23;;;2.00;;
64619;SDS011;51029;51.058;13.826;2022-10-19T16:43:14;3.47;;;1.70;;
64619;SDS011;51029;51.058;13.826;2022-10-19T16:45:43;7.80;;;2.83;;
64619;SDS011;51029;51.058;13.826;2022-10-19T16:48:10;8.33;;;2.23;;
64619;SDS011;51029;51.058;13.826;2022-10-19T16:50:36;4.17;;;2.07;;
64619;SDS011;51029;51.058;13.826;2022-10-19T16:53:03;2.73;;;1.90;;
64619;SDS011;51029;51.058;13.826;2022-10-19T16:55:31;6.83;;;1.83;;
64619;SDS011;51029;51.058;13.826;2022-10-19T16:57:56;5.90;;;2.03;;
64619;SDS011;51029;51.058;13.826;2022-10-19T17:00:22;5.20;;;2.47;;
64619;SDS011;51029;51.058;13.826;2022-10-19T17:02:48;3.70;;;2.57;;
64619;SDS011;51029;51.058;13.826;2022-10-19T17:05:13;6.70;;;2.13;;
64619;SDS011;51029;51.058;13.826;2022-10-19T17:07:39;5.53;;;2.30;;
64619;SDS011;51029;51.058;13.826;2022-10-19T17:10:04;3.93;;;2.03;;